KCTZ/CTZ METAR and TAF weather

Enter ICAO airport designator
Station Type Date Time Source
KCTZ METAR 2020/04/02 21:15 UTC NOAA

KCTZ 022115Z AUTO 30008G16KT 10SM CLR 18/01 A2989 RMK AO2 T01830014


Station Type Date Time Source
KCTZ Decoded METAR 2020/04/02 21:15 UTC NOAA

Clinton, Sampson County Airport, NC, United States (KCTZ) 34-58-32N 078-21-53W
Apr 02, 2020 - 05:15 PM EDT / 2020.04.02 2115 UTC
Wind: from the WNW (300 degrees) at 9 MPH (8 KT) gusting to 18 MPH (16 KT):0
Visibility: 10 mile(s):0
Sky conditions: clear
Temperature: 64.9 F (18.3 C)
Dew Point: 34.5 F (1.4 C)
Relative Humidity: 32%
Pressure (altimeter): 29.89 in. Hg (1012 hPa)
ob: KCTZ 022115Z AUTO 30008G16KT 10SM CLR 18/01 A2989 RMK AO2 T01830014
cycle: 21

Station Type Date Time Source
KCTZ TAF UTC NOAA

Error!

Example: see airport list